Badger, Canada
Current Conditions -  °F | °C
As of 6:00 PM on Tuesday 21 Oct 2014 (Local Time) from CYDF Reporting Station
Rain Showers Rain Showers  
Wind Chill: 41°   Ceiling: 3500
Heat Index: 46°   Visibility: 15mi
Dew Point: 36°   Wind: 10mph
Humidity: 66%   Direction: 240°WSW
Pressure: 30.11"   Gusts: NA
Location:  48.97°N, 56.07°W
Report Text: CYDF 212000Z 24009KT 15SM VCSH BKN035 08/02 A3011 RMK SC5 SLP196
Loading
Personal Weather Stations






























Interactive Weather Map
Tropical Storm Tracking
New forecast layout! Learn more

10-Day Weather Forecast

Advertisements
Track Severe Weather on mobile